Flight Track Log - Related Links

Times and Time Zones

All times are in EDT time to prevent confusion due to time zone crossing. See the ASQ5745 flight status page for this flight to view local times or setup timezone preferences in your user account.

Time Position Orientation Groundspeed Altitude Reporting Facility
EDT Latitude Longitude Course Direction KTS MPH feet Rate Location/Type
Wed 08:20:26 AM 38.9833 -77.4500 North 183 211 2,000  Level Potomac TRACON
Wed 08:21:21 AM 39.0500 -77.4500 360° North 257 296 4,000 2,648 Climbing Potomac TRACON
Wed 08:23:00 AM 39.2945 -77.4500 North  Level FlightAware Approximate
Wed 08:23:25 AM 39.1886 -77.4661 355° North 262 302 9,900  Level Washington Center
Wed 08:24:00 AM 39.3848 -77.4500 North  Level FlightAware Approximate
Wed 08:24:23 AM 39.2700 -77.4628 North 269 310 12,100  Level Washington Center
Wed 08:25:00 AM 39.4751 -77.4500 North  Level FlightAware Approximate
Wed 08:25:24 AM 39.3511 -77.4622 360° North 279 321 14,400  Level Washington Center
Wed 08:26:25 AM 39.4344 -77.4592 North 285 328 16,100 1,412 Climbing Washington Center
Wed 08:27:23 AM 39.5264 -77.4586 360° North 304 350 17,200 957 Climbing Washington Center
Wed 08:28:43 AM 39.6594 -77.4536 North 354 407 18,300 771 Climbing New York Center
Wed 08:29:43 AM 39.7531 -77.4544 360° North 364 419 19,000 694 Climbing New York Center
Wed 08:30:44 AM 39.8575 -77.4536 360° North 369 425 19,700 793 Climbing New York Center
Wed 08:31:44 AM 39.9681 -77.4506 North 380 437 20,600 756 Climbing New York Center
Wed 08:32:43 AM 40.0808 -77.4506 360° North 390 449 21,200 750 Climbing New York Center
Wed 08:33:44 AM 40.2039 -77.4461 North 395 455 22,100 750 Climbing New York Center
Wed 08:34:43 AM 40.3000 -77.4064 17° North 405 466 22,700 454 Climbing New York Center
Wed 08:35:43 AM 40.4017 -77.3397 27° Northeast 399 459 23,000 397 Climbing New York Center
Wed 08:36:44 AM 40.5142 -77.2658 27° Northeast 399 459 23,500 504 Climbing New York Center
Wed 08:37:42 AM 40.6203 -77.1939 27° Northeast 406 467 24,000 504 Climbing New York Center
Wed 08:38:43 AM 40.7242 -77.1242 27° Northeast 417 480 24,500 504 Climbing New York Center
Wed 08:39:41 AM 40.8300 -77.0544 26° Northeast 417 480 25,000 504 Climbing New York Center
Wed 08:40:42 AM 40.9431 -77.0069 18° North 417 480 25,500 492 Climbing New York Center
Wed 08:41:43 AM 41.0536 -76.9622 17° North 417 480 26,000 492 Climbing New York Center
Wed 08:42:44 AM 41.1597 -76.8864 28° Northeast 417 480 26,500 496 Climbing New York Center
Wed 08:43:44 AM 41.2639 -76.8075 30° Northeast 423 487 27,000 256 Climbing New York Center
Wed 08:44:41 AM 41.3697 -76.7314 28° Northeast 428 493 27,000  Level New York Center
Wed 08:45:43 AM 41.4822 -76.6497 29° Northeast 438 504 27,000  Level New York Center
Wed 08:46:44 AM 41.5922 -76.5681 29° Northeast 443 510 27,000  Level New York Center
Wed 08:47:41 AM 41.7006 -76.4856 30° Northeast 443 510 27,000  Level New York Center
Wed 08:48:44 AM 41.7978 -76.4106 30° Northeast 443 510 27,000  Level New York Center
Wed 08:49:41 AM 41.9228 -76.3181 29° Northeast 448 516 27,000 -153 Level New York Center
Wed 08:50:42 AM 42.0222 -76.2425 29° Northeast 453 521 26,700 -347 Descending New York Center
Wed 08:51:42 AM 42.1450 -76.1492 29° Northeast 458 527 26,300 -508 Descending New York Center
Wed 08:52:52 AM 42.2158 -75.9839 60° Northeast 463 533 25,600 -831 Descending Boston Center
Wed 08:53:52 AM 42.2667 -75.8239 67° East 457 526 24,500 -800 Descending Boston Center
Wed 08:54:52 AM 42.3233 -75.6611 65° Northeast 443 510 24,000 -250 Descending Boston Center
Wed 08:55:52 AM 42.3550 -75.5028 75° East 436 502 24,000 -300 Level Boston Center
Wed 08:56:52 AM 42.3736 -75.3489 81° East 423 487 23,400 -1,650 Descending Boston Center
Wed 08:57:52 AM 42.3961 -75.2011 78° East 417 480 20,700 -2,700 Descending Boston Center
Wed 08:58:52 AM 42.4142 -75.0556 80° East 406 467 18,000 -2,850 Descending Boston Center
Wed 08:59:52 AM 42.4339 -74.9156 79° East 393 452 15,000 -3,050 Descending Boston Center
Wed 09:00:52 AM 42.4514 -74.7783 80° East 376 433 11,900 -2,000 Descending Boston Center
Wed 09:01:52 AM 42.4706 -74.6525 78° East 335 386 11,000 -450 Descending Boston Center
Wed 09:02:52 AM 42.4897 -74.5264 78° East 346 398 11,000 -100 Level Boston Center
Wed 09:03:52 AM 42.5042 -74.4058 81° East 336 387 10,800 -850 Descending Boston Center
Wed 09:04:52 AM 42.5186 -74.2992 80° East 306 352 9,300 -1,500 Descending Boston Center
Wed 09:05:52 AM 42.5303 -74.2208 79° East 294 338 7,800 -1,850 Descending Boston Center
Wed 09:06:52 AM 42.5633 -74.1089 68° East 294 338 5,600 -2,100 Descending Boston Center
Wed 09:07:52 AM 42.6022 -74.0000 64° Northeast 277 319 3,600 -1,016 Descending Boston Center
Wed 09:08:56 AM 42.6472 -73.9136 55° Northeast 255 293 3,500 -432 Descending Boston Center
Wed 09:09:57 AM 42.6753 -73.8436 61° Northeast 189 217 2,700 -1,131 Descending Boston Center
Wed 09:10:58 AM 42.7006 -73.8075 46° Northeast 129 148 1,200 -1,475 Descending Boston Center

Login

Don't have an account? Register now (free) for customized features, flight alerts, and more!